Richmond, VA

6:50 AM EST on February 01, 2015 (GMT -0500)
University Hts. | Change Station
CLOSE
Current Station
Personal Weather Station
Location: Richmond, VA
Elevation: 276 ft
Nearby Weather Stations

Elev 276 ft 37.59 °N, 77.56 °W | Updated 9 seconds ago

Partly Cloudy
Partly Cloudy
26.8 °F
Feels Like 27 °F
N
0.0
Wind Variable Wind from East
Gusts 0.0 mph

Today
High -- | Low -- °F
--% Chance of Precip.
Yesterday
High -- | Low -- °F
Precip. -- in
7:13 AM 5:33 PM
Waxing Gibbous, 94% visible
Pressure 30.31 in
Visibility 10.0 miles
Clouds Scattered Clouds 10000 ft
Scattered Clouds 30000 ft
Windchill 27 °F
Dew Point 16 °F
Humidity 62%
Rainfall 0.00 in
Snow Depth Not available.
UV 0 out of 12
Pollen 2.90 out of 12
Air Quality Not available.
Flu Activity Not available.
METAR KRIC 011054Z 34003KT 10SM SCT100 SCT300 M04/M08 A3029 RMK AO2 SLP262 T10391083

More Conditions Fewer Conditions

Pressure 30.31 in
Visibility 10.0 miles
Clouds Scattered Clouds 10000 ft
Scattered Clouds 30000 ft
Windchill 27 °F
Dew Point 16 °F
Humidity 62%
Rainfall 0.00 in
Snow Depth Not available.
UV 0 out of 12
Pollen 2.90 out of 12
Air Quality Not available.
Flu Activity Not available.
METAR KRIC 011054Z 34003KT 10SM SCT100 SCT300 M04/M08 A3029 RMK AO2 SLP262 T10391083

More Conditions Fewer Conditions

10-Day Weather Forecast

Almanac

Astronomy

Feb. 01, 2015 Rise Set
Actual Time
Civil Twilight
Nautical Twilight
Astronomical Twilight
Moon
Length of Visible Light
Length of Day
Tomorrow will be .
, % of the Moon is Illuminated

Today's Extremes

State Highs State Lows

Community

WunderPhotos

Upload Photos

1,792,346 photos uploaded!

WunderBlogs® & News

Nearby

Air Quality

  Air Quality AQ Index Pollutant
Not available.

Snow Depth

Station Depth Elevation

Earthquake Activity

City Distance Mag. Time & Date
Minimum magnitude displayed is 2.5.

Coastal Water Temperatures

Place Temperature

Nearby Weather Stations